sensor_id;sensor_type;location;lat;lon;timestamp;pressure;altitude;pressure_sealevel;temperature;humidity
10712;BME280;5407;51.234;6.804;2022-09-14T00:02:00;100297.63;;;25.74;nan
10712;BME280;5407;51.234;6.804;2022-09-14T00:04:27;100291.47;;;25.70;nan
10712;BME280;5407;51.234;6.804;2022-09-14T00:06:54;100283.03;;;25.95;nan
10712;BME280;5407;51.234;6.804;2022-09-14T00:09:23;100284.31;;;26.03;nan
10712;BME280;5407;51.234;6.804;2022-09-14T00:11:50;100273.63;;;25.83;nan
10712;BME280;5407;51.234;6.804;2022-09-14T00:14:18;100272.56;;;25.90;nan
10712;BME280;5407;51.234;6.804;2022-09-14T00:16:46;100273.63;;;25.83;nan
10712;BME280;5407;51.234;6.804;2022-09-14T00:19:16;100259.84;;;25.71;nan
10712;BME280;5407;51.234;6.804;2022-09-14T00:21:44;100254.91;;;25.66;nan
10712;BME280;5407;51.234;6.804;2022-09-14T00:24:10;100262.28;;;25.90;nan
10712;BME280;5407;51.234;6.804;2022-09-14T00:26:37;100257.69;;;25.96;nan
10712;BME280;5407;51.234;6.804;2022-09-14T00:29:04;100240.66;;;25.98;nan
10712;BME280;5407;51.234;6.804;2022-09-14T00:31:32;100237.94;;;26.07;nan
10712;BME280;5407;51.234;6.804;2022-09-14T00:34:02;100234.56;;;26.12;nan
10712;BME280;5407;51.234;6.804;2022-09-14T00:36:30;100226.56;;;26.14;nan
10712;BME280;5407;51.234;6.804;2022-09-14T00:38:58;100210.00;;;26.14;nan
10712;BME280;5407;51.234;6.804;2022-09-14T00:41:26;100210.00;;;26.14;nan
10712;BME280;5407;51.234;6.804;2022-09-14T00:43:56;100196.94;;;26.14;nan
10712;BME280;5407;51.234;6.804;2022-09-14T00:46:25;100191.84;;;26.13;nan
10712;BME280;5407;51.234;6.804;2022-09-14T00:48:52;100201.25;;;26.15;nan
10712;BME280;5407;51.234;6.804;2022-09-14T00:51:21;100196.47;;;26.16;nan
10712;BME280;5407;51.234;6.804;2022-09-14T00:53:49;100197.38;;;26.13;nan
10712;BME280;5407;51.234;6.804;2022-09-14T00:56:16;100200.47;;;26.15;nan
10712;BME280;5407;51.234;6.804;2022-09-14T00:58:45;100198.78;;;26.17;nan
10712;BME280;5407;51.234;6.804;2022-09-14T01:01:14;100198.16;;;26.13;nan
10712;BME280;5407;51.234;6.804;2022-09-14T01:03:41;100192.94;;;26.15;nan
10712;BME280;5407;51.234;6.804;2022-09-14T01:09:08;100189.72;;;26.17;nan
10712;BME280;5407;51.234;6.804;2022-09-14T01:11:49;100184.66;;;26.15;nan
10712;BME280;5407;51.234;6.804;2022-09-14T01:14:26;100182.34;;;26.14;nan
10712;BME280;5407;51.234;6.804;2022-09-14T01:17:01;100182.81;;;26.12;nan
10712;BME280;5407;51.234;6.804;2022-09-14T01:19:42;100184.97;;;26.08;nan
10712;BME280;5407;51.234;6.804;2022-09-14T01:22:17;100181.88;;;26.06;nan
10712;BME280;5407;51.234;6.804;2022-09-14T01:24:52;100178.34;;;26.06;nan
10712;BME280;5407;51.234;6.804;2022-09-14T01:27:27;100193.84;;;26.03;nan
10712;BME280;5407;51.234;6.804;2022-09-14T01:30:02;100183.56;;;26.04;nan
10712;BME280;5407;51.234;6.804;2022-09-14T01:32:32;100191.53;;;26.02;nan
10712;BME280;5407;51.234;6.804;2022-09-14T01:35:05;100182.94;;;26.00;nan
10712;BME280;5407;51.234;6.804;2022-09-14T01:37:36;100183.25;;;26.02;nan
10712;BME280;5407;51.234;6.804;2022-09-14T01:40:10;100181.25;;;26.02;nan
10712;BME280;5407;51.234;6.804;2022-09-14T01:42:45;100180.47;;;26.02;nan
10712;BME280;5407;51.234;6.804;2022-09-14T01:45:16;100181.69;;;26.01;nan
10712;BME280;5407;51.234;6.804;2022-09-14T01:47:47;100193.38;;;25.96;nan
10712;BME280;5407;51.234;6.804;2022-09-14T01:50:19;100197.34;;;25.95;nan
10712;BME280;5407;51.234;6.804;2022-09-14T01:52:51;100197.66;;;25.97;nan
10712;BME280;5407;51.234;6.804;2022-09-14T01:55:21;100198.91;;;25.96;nan
10712;BME280;5407;51.234;6.804;2022-09-14T01:57:54;100198.91;;;25.96;nan
10712;BME280;5407;51.234;6.804;2022-09-14T02:00:24;100204.41;;;25.96;nan
10712;BME280;5407;51.234;6.804;2022-09-14T02:02:53;100209.16;;;25.95;nan
10712;BME280;5407;51.234;6.804;2022-09-14T02:05:27;100200.13;;;25.95;nan
10712;BME280;5407;51.234;6.804;2022-09-14T02:07:56;100204.09;;;25.94;nan
10712;BME280;5407;51.234;6.804;2022-09-14T02:10:24;100203.78;;;25.92;nan
10712;BME280;5407;51.234;6.804;2022-09-14T02:12:53;100199.03;;;25.92;nan
10712;BME280;5407;51.234;6.804;2022-09-14T02:15:21;100193.81;;;25.94;nan
10712;BME280;5407;51.234;6.804;2022-09-14T02:17:50;100201.78;;;25.92;nan
10712;BME280;5407;51.234;6.804;2022-09-14T02:20:21;100199.50;;;25.91;nan
10712;BME280;5407;51.234;6.804;2022-09-14T02:22:50;100197.47;;;25.91;nan
10712;BME280;5407;51.234;6.804;2022-09-14T02:25:18;100196.41;;;25.89;nan
10712;BME280;5407;51.234;6.804;2022-09-14T02:27:46;100203.47;;;25.90;nan
10712;BME280;5407;51.234;6.804;2022-09-14T02:30:16;100198.72;;;25.90;nan
10712;BME280;5407;51.234;6.804;2022-09-14T02:32:52;100194.41;;;25.89;nan
10712;BME280;5407;51.234;6.804;2022-09-14T02:35:23;100194.72;;;25.91;nan
10712;BME280;5407;51.234;6.804;2022-09-14T02:37:58;100189.66;;;25.90;nan
10712;BME280;5407;51.234;6.804;2022-09-14T02:40:31;100188.13;;;25.89;nan
10712;BME280;5407;51.234;6.804;2022-09-14T02:43:14;100183.81;;;25.88;nan
10712;BME280;5407;51.234;6.804;2022-09-14T02:45:52;100174.00;;;25.87;nan
10712;BME280;5407;51.234;6.804;2022-09-14T02:48:28;100162.94;;;25.87;nan
10712;BME280;5407;51.234;6.804;2022-09-14T02:51:01;100165.72;;;25.87;nan
10712;BME280;5407;51.234;6.804;2022-09-14T02:53:36;100167.25;;;25.88;nan
10712;BME280;5407;51.234;6.804;2022-09-14T02:56:06;100165.41;;;25.85;nan
10712;BME280;5407;51.234;6.804;2022-09-14T02:58:35;100158.31;;;25.84;nan
10712;BME280;5407;51.234;6.804;2022-09-14T03:01:05;100154.03;;;25.83;nan
10712;BME280;5407;51.234;6.804;2022-09-14T03:03:32;100146.50;;;25.83;nan
10712;BME280;5407;51.234;6.804;2022-09-14T03:05:59;100154.78;;;25.83;nan
10712;BME280;5407;51.234;6.804;2022-09-14T03:08:26;100144.94;;;25.82;nan
10712;BME280;5407;51.234;6.804;2022-09-14T03:10:54;100142.97;;;25.83;nan
10712;BME280;5407;51.234;6.804;2022-09-14T03:13:20;100138.66;;;25.82;nan
10712;BME280;5407;51.234;6.804;2022-09-14T03:15:47;100135.56;;;25.80;nan
10712;BME280;5407;51.234;6.804;2022-09-14T03:18:16;100137.09;;;25.81;nan
10712;BME280;5407;51.234;6.804;2022-09-14T03:20:43;100130.03;;;25.80;nan
10712;BME280;5407;51.234;6.804;2022-09-14T03:23:11;100130.03;;;25.80;nan
10712;BME280;5407;51.234;6.804;2022-09-14T03:25:39;100126.97;;;25.78;nan
10712;BME280;5407;51.234;6.804;2022-09-14T03:28:06;100120.03;;;25.73;nan
10712;BME280;5407;51.234;6.804;2022-09-14T03:30:33;100111.94;;;25.79;nan
10712;BME280;5407;51.234;6.804;2022-09-14T03:33:00;100112.25;;;25.81;nan
10712;BME280;5407;51.234;6.804;2022-09-14T03:35:29;100107.63;;;25.78;nan
10712;BME280;5407;51.234;6.804;2022-09-14T03:37:57;100108.59;;;25.84;nan
10712;BME280;5407;51.234;6.804;2022-09-14T03:40:24;100112.88;;;25.85;nan
10712;BME280;5407;51.234;6.804;2022-09-14T03:42:52;100116.72;;;25.87;nan
10712;BME280;5407;51.234;6.804;2022-09-14T03:45:20;100111.97;;;25.88;nan
10712;BME280;5407;51.234;6.804;2022-09-14T03:47:47;100095.38;;;25.88;nan
10712;BME280;5407;51.234;6.804;2022-09-14T03:50:16;100101.22;;;25.90;nan
10712;BME280;5407;51.234;6.804;2022-09-14T03:52:44;100103.06;;;25.93;nan
10712;BME280;5407;51.234;6.804;2022-09-14T03:55:11;100107.81;;;25.83;nan
10712;BME280;5407;51.234;6.804;2022-09-14T03:57:38;100106.41;;;25.79;nan
10712;BME280;5407;51.234;6.804;2022-09-14T04:00:06;100103.47;;;25.73;nan
10712;BME280;5407;51.234;6.804;2022-09-14T04:02:37;100093.81;;;25.38;nan
10712;BME280;5407;51.234;6.804;2022-09-14T04:05:05;100099.72;;;25.19;nan
10712;BME280;5407;51.234;6.804;2022-09-14T04:07:32;100096.28;;;25.06;nan
10712;BME280;5407;51.234;6.804;2022-09-14T04:10:00;100103.22;;;25.11;nan
10712;BME280;5407;51.234;6.804;2022-09-14T04:12:27;100097.63;;;25.02;nan
10712;BME280;5407;51.234;6.804;2022-09-14T04:14:54;100100.22;;;24.96;nan
10712;BME280;5407;51.234;6.804;2022-09-14T04:17:21;100097.13;;;24.94;nan
10712;BME280;5407;51.234;6.804;2022-09-14T04:19:50;100098.69;;;24.95;nan
10712;BME280;5407;51.234;6.804;2022-09-14T04:22:17;100103.56;;;24.91;nan
10712;BME280;5407;51.234;6.804;2022-09-14T04:24:43;100099.91;;;24.94;nan
10712;BME280;5407;51.234;6.804;2022-09-14T04:27:12;100099.31;;;24.99;nan
10712;BME280;5407;51.234;6.804;2022-09-14T04:29:39;100100.66;;;24.95;nan
10712;BME280;5407;51.234;6.804;2022-09-14T04:32:05;100087.31;;;24.93;nan
10712;BME280;5407;51.234;6.804;2022-09-14T04:34:33;100082.88;;;24.96;nan
10712;BME280;5407;51.234;6.804;2022-09-14T04:37:00;100093.78;;;24.99;nan
10712;BME280;5407;51.234;6.804;2022-09-14T04:39:27;100091.63;;;24.94;nan
10712;BME280;5407;51.234;6.804;2022-09-14T04:41:54;100102.06;;;24.99;nan
10712;BME280;5407;51.234;6.804;2022-09-14T04:44:23;100099.28;;;25.21;nan
10712;BME280;5407;51.234;6.804;2022-09-14T04:46:49;100097.44;;;25.18;nan
10712;BME280;5407;51.234;6.804;2022-09-14T04:49:16;100102.63;;;25.16;nan
10712;BME280;5407;51.234;6.804;2022-09-14T04:51:45;100100.03;;;25.21;nan
10712;BME280;5407;51.234;6.804;2022-09-14T04:54:14;100107.88;;;25.23;nan
10712;BME280;5407;51.234;6.804;2022-09-14T04:56:41;100097.97;;;25.34;nan
10712;BME280;5407;51.234;6.804;2022-09-14T04:59:09;100097.69;;;25.41;nan
10712;BME280;5407;51.234;6.804;2022-09-14T05:01:39;100097.69;;;25.41;nan
10712;BME280;5407;51.234;6.804;2022-09-14T05:04:07;100089.81;;;25.31;nan
10712;BME280;5407;51.234;6.804;2022-09-14T05:06:36;100090.69;;;25.19;nan
10712;BME280;5407;51.234;6.804;2022-09-14T05:09:05;100088.00;;;25.06;nan
10712;BME280;5407;51.234;6.804;2022-09-14T05:11:34;100080.94;;;25.05;nan
10712;BME280;5407;51.234;6.804;2022-09-14T05:14:02;100081.97;;;24.99;nan
10712;BME280;5407;51.234;6.804;2022-09-14T05:16:31;100080.03;;;25.08;nan
10712;BME280;5407;51.234;6.804;2022-09-14T05:19:00;100080.94;;;25.05;nan
10712;BME280;5407;51.234;6.804;2022-09-14T05:21:29;100093.00;;;24.99;nan
10712;BME280;5407;51.234;6.804;2022-09-14T05:23:58;100087.03;;;25.00;nan
10712;BME280;5407;51.234;6.804;2022-09-14T05:26:27;100083.25;;;25.07;nan
10712;BME280;5407;51.234;6.804;2022-09-14T05:28:56;100083.66;;;24.96;nan
10712;BME280;5407;51.234;6.804;2022-09-14T05:31:24;100082.50;;;24.85;nan
10712;BME280;5407;51.234;6.804;2022-09-14T05:33:52;100082.00;;;24.77;nan
10712;BME280;5407;51.234;6.804;2022-09-14T05:36:20;100077.38;;;24.74;nan
10712;BME280;5407;51.234;6.804;2022-09-14T05:38:47;100067.84;;;24.97;nan
10712;BME280;5407;51.234;6.804;2022-09-14T05:41:14;100074.63;;;25.05;nan
10712;BME280;5407;51.234;6.804;2022-09-14T05:43:42;100084.00;;;25.07;nan
10712;BME280;5407;51.234;6.804;2022-09-14T05:46:12;100076.50;;;25.08;nan
10712;BME280;5407;51.234;6.804;2022-09-14T05:48:39;100079.13;;;25.11;nan
10712;BME280;5407;51.234;6.804;2022-09-14T05:51:09;100080.94;;;25.05;nan
10712;BME280;5407;51.234;6.804;2022-09-14T05:53:38;100079.13;;;25.11;nan
10712;BME280;5407;51.234;6.804;2022-09-14T05:56:06;100078.75;;;25.00;nan
10712;BME280;5407;51.234;6.804;2022-09-14T05:58:34;100077.84;;;25.03;nan
10712;BME280;5407;51.234;6.804;2022-09-14T06:01:06;100069.25;;;25.01;nan
10712;BME280;5407;51.234;6.804;2022-09-14T06:03:33;100086.22;;;24.91;nan
10712;BME280;5407;51.234;6.804;2022-09-14T06:06:00;100083.28;;;24.85;nan
10712;BME280;5407;51.234;6.804;2022-09-14T06:08:27;100082.00;;;24.77;nan
10712;BME280;5407;51.234;6.804;2022-09-14T06:10:55;100083.94;;;24.68;nan
10712;BME280;5407;51.234;6.804;2022-09-14T06:13:22;100088.56;;;24.71;nan
10712;BME280;5407;51.234;6.804;2022-09-14T06:15:49;100084.84;;;24.65;nan
10712;BME280;5407;51.234;6.804;2022-09-14T06:18:16;100086.25;;;24.69;nan
10712;BME280;5407;51.234;6.804;2022-09-14T06:20:50;100085.97;;;24.76;nan
10712;BME280;5407;51.234;6.804;2022-09-14T06:23:17;100088.09;;;24.72;nan
10712;BME280;5407;51.234;6.804;2022-09-14T06:25:44;100084.59;;;24.72;nan
10712;BME280;5407;51.234;6.804;2022-09-14T06:28:12;100085.88;;;24.58;nan
10712;BME280;5407;51.234;6.804;2022-09-14T06:30:42;100093.81;;;24.56;nan
10712;BME280;5407;51.234;6.804;2022-09-14T06:33:09;100078.28;;;24.50;nan
10712;BME280;5407;51.234;6.804;2022-09-14T06:35:35;100085.47;;;24.47;nan
10712;BME280;5407;51.234;6.804;2022-09-14T06:38:02;100080.84;;;24.44;nan
10712;BME280;5407;51.234;6.804;2022-09-14T06:40:29;100080.84;;;24.44;nan
10712;BME280;5407;51.234;6.804;2022-09-14T06:42:56;100085.56;;;24.44;nan
10712;BME280;5407;51.234;6.804;2022-09-14T06:45:28;100078.19;;;24.41;nan
10712;BME280;5407;51.234;6.804;2022-09-14T06:47:56;100077.13;;;24.38;nan
10712;BME280;5407;51.234;6.804;2022-09-14T06:50:23;100090.59;;;24.36;nan
10712;BME280;5407;51.234;6.804;2022-09-14T06:52:51;100087.06;;;24.36;nan
10712;BME280;5407;51.234;6.804;2022-09-14T06:55:17;100081.97;;;24.34;nan
10712;BME280;5407;51.234;6.804;2022-09-14T06:57:46;100084.09;;;24.30;nan
10712;BME280;5407;51.234;6.804;2022-09-14T07:00:14;100091.47;;;24.33;nan
10712;BME280;5407;51.234;6.804;2022-09-14T07:02:43;100086.41;;;24.32;nan
10712;BME280;5407;51.234;6.804;2022-09-14T07:05:11;100082.56;;;24.29;nan
10712;BME280;5407;51.234;6.804;2022-09-14T07:07:38;100083.75;;;24.28;nan
10712;BME280;5407;51.234;6.804;2022-09-14T07:10:05;100094.38;;;24.30;nan
10712;BME280;5407;51.234;6.804;2022-09-14T07:12:32;100085.44;;;24.26;nan
10712;BME280;5407;51.234;6.804;2022-09-14T07:14:59;100079.78;;;24.29;nan
10712;BME280;5407;51.234;6.804;2022-09-14T07:17:26;100085.56;;;24.22;nan
10712;BME280;5407;51.234;6.804;2022-09-14T07:19:54;100086.84;;;24.30;nan
10712;BME280;5407;51.234;6.804;2022-09-14T07:22:21;100074.75;;;24.28;nan
10712;BME280;5407;51.234;6.804;2022-09-14T07:24:48;100077.50;;;24.28;nan
10712;BME280;5407;51.234;6.804;2022-09-14T07:27:15;100073.97;;;24.27;nan
10712;BME280;5407;51.234;6.804;2022-09-14T07:29:41;100082.38;;;24.24;nan
10712;BME280;5407;51.234;6.804;2022-09-14T07:32:08;100077.63;;;24.24;nan
10712;BME280;5407;51.234;6.804;2022-09-14T07:34:35;100077.63;;;24.24;nan
10712;BME280;5407;51.234;6.804;2022-09-14T07:37:04;100079.41;;;24.18;nan
10712;BME280;5407;51.234;6.804;2022-09-14T07:39:30;100076.59;;;24.31;nan
10712;BME280;5407;51.234;6.804;2022-09-14T07:41:57;100078.91;;;24.32;nan
10712;BME280;5407;51.234;6.804;2022-09-14T07:44:24;100080.25;;;24.28;nan
10712;BME280;5407;51.234;6.804;2022-09-14T07:46:51;100085.84;;;24.37;nan
10712;BME280;5407;51.234;6.804;2022-09-14T07:49:18;100084.19;;;24.39;nan
10712;BME280;5407;51.234;6.804;2022-09-14T07:51:47;100081.50;;;24.48;nan
10712;BME280;5407;51.234;6.804;2022-09-14T07:54:16;100079.47;;;24.49;nan
10712;BME280;5407;51.234;6.804;2022-09-14T07:56:44;100083.38;;;24.51;nan
10712;BME280;5407;51.234;6.804;2022-09-14T07:59:12;100078.72;;;24.48;nan
10712;BME280;5407;51.234;6.804;2022-09-14T08:01:39;100077.88;;;24.39;nan
10712;BME280;5407;51.234;6.804;2022-09-14T08:04:06;100080.97;;;24.41;nan
10712;BME280;5407;51.234;6.804;2022-09-14T08:06:34;100071.63;;;24.38;nan
10712;BME280;5407;51.234;6.804;2022-09-14T08:09:05;100074.69;;;24.40;nan
10712;BME280;5407;51.234;6.804;2022-09-14T08:11:34;100076.09;;;24.45;nan
10712;BME280;5407;51.234;6.804;2022-09-14T08:14:03;100081.75;;;24.41;nan
10712;BME280;5407;51.234;6.804;2022-09-14T08:16:32;100075.72;;;24.34;nan
10712;BME280;5407;51.234;6.804;2022-09-14T08:19:01;100065.63;;;24.40;nan
10712;BME280;5407;51.234;6.804;2022-09-14T08:21:30;100057.75;;;24.29;nan
10712;BME280;5407;51.234;6.804;2022-09-14T08:23:58;100063.50;;;24.22;nan
10712;BME280;5407;51.234;6.804;2022-09-14T08:26:27;100050.63;;;24.19;nan
10712;BME280;5407;51.234;6.804;2022-09-14T08:28:55;100054.59;;;24.18;nan
10712;BME280;5407;51.234;6.804;2022-09-14T08:31:24;100057.50;;;24.36;nan
10712;BME280;5407;51.234;6.804;2022-09-14T08:33:53;100062.44;;;24.41;nan
10712;BME280;5407;51.234;6.804;2022-09-14T08:36:21;100060.59;;;24.38;nan
10712;BME280;5407;51.234;6.804;2022-09-14T08:38:48;100057.63;;;24.33;nan
10712;BME280;5407;51.234;6.804;2022-09-14T08:41:25;100050.09;;;24.33;nan
10712;BME280;5407;51.234;6.804;2022-09-14T08:43:52;100059.91;;;24.34;nan
10712;BME280;5407;51.234;6.804;2022-09-14T08:46:28;100052.22;;;24.29;nan
10712;BME280;5407;51.234;6.804;2022-09-14T08:48:56;100057.16;;;24.34;nan
10712;BME280;5407;51.234;6.804;2022-09-14T08:51:24;100048.25;;;24.30;nan
10712;BME280;5407;51.234;6.804;2022-09-14T08:53:52;100050.84;;;24.25;nan
10712;BME280;5407;51.234;6.804;2022-09-14T08:56:24;100054.66;;;24.27;nan
10712;BME280;5407;51.234;6.804;2022-09-14T08:59:12;100054.03;;;24.23;nan
10712;BME280;5407;51.234;6.804;2022-09-14T09:01:48;100048.84;;;24.25;nan
10712;BME280;5407;51.234;6.804;2022-09-14T09:04:32;100052.16;;;24.20;nan
10712;BME280;5407;51.234;6.804;2022-09-14T09:07:06;100053.06;;;24.17;nan
10712;BME280;5407;51.234;6.804;2022-09-14T09:09:40;100051.59;;;24.25;nan
10712;BME280;5407;51.234;6.804;2022-09-14T09:12:12;100049.41;;;24.20;nan
10712;BME280;5407;51.234;6.804;2022-09-14T09:14:43;100059.06;;;24.37;nan
10712;BME280;5407;51.234;6.804;2022-09-14T09:17:16;100058.78;;;24.44;nan
10712;BME280;5407;51.234;6.804;2022-09-14T09:19:55;100062.19;;;24.48;nan
10712;BME280;5407;51.234;6.804;2022-09-14T09:22:29;100061.94;;;24.55;nan
10712;BME280;5407;51.234;6.804;2022-09-14T09:24:57;100064.13;;;24.60;nan
10712;BME280;5407;51.234;6.804;2022-09-14T09:27:25;100067.06;;;24.44;nan
10712;BME280;5407;51.234;6.804;2022-09-14T09:29:52;100076.81;;;24.36;nan
10712;BME280;5407;51.234;6.804;2022-09-14T09:32:24;100078.91;;;24.32;nan
10712;BME280;5407;51.234;6.804;2022-09-14T09:34:51;100082.75;;;24.35;nan
10712;BME280;5407;51.234;6.804;2022-09-14T09:37:54;100082.13;;;24.31;nan
10712;BME280;5407;51.234;6.804;2022-09-14T09:40:24;100076.06;;;24.23;nan
10712;BME280;5407;51.234;6.804;2022-09-14T09:43:05;100065.94;;;24.20;nan
10712;BME280;5407;51.234;6.804;2022-09-14T09:45:46;100056.59;;;24.18;nan
10712;BME280;5407;51.234;6.804;2022-09-14T09:48:17;100061.78;;;24.16;nan
10712;BME280;5407;51.234;6.804;2022-09-14T09:50:50;100061.31;;;24.17;nan
10712;BME280;5407;51.234;6.804;2022-09-14T09:53:20;100066.59;;;24.24;nan
10712;BME280;5407;51.234;6.804;2022-09-14T09:55:48;100063.03;;;24.36;nan
10712;BME280;5407;51.234;6.804;2022-09-14T09:58:31;100065.94;;;24.20;nan
10712;BME280;5407;51.234;6.804;2022-09-14T10:01:00;100067.47;;;24.21;nan
10712;BME280;5407;51.234;6.804;2022-09-14T10:03:32;100074.84;;;24.24;nan
10712;BME280;5407;51.234;6.804;2022-09-14T10:06:01;100065.94;;;24.20;nan
10712;BME280;5407;51.234;6.804;2022-09-14T10:08:29;100056.72;;;24.14;nan
10712;BME280;5407;51.234;6.804;2022-09-14T10:11:00;100057.19;;;24.13;nan
10712;BME280;5407;51.234;6.804;2022-09-14T10:13:30;100059.72;;;24.07;nan
10712;BME280;5407;51.234;6.804;2022-09-14T10:16:06;100061.69;;;24.07;nan
10712;BME280;5407;51.234;6.804;2022-09-14T10:18:34;100061.84;;;24.03;nan
10712;BME280;5407;51.234;6.804;2022-09-14T10:21:07;100060.16;;;24.06;nan
10712;BME280;5407;51.234;6.804;2022-09-14T10:23:35;100061.69;;;24.07;nan
10712;BME280;5407;51.234;6.804;2022-09-14T10:26:23;100056.97;;;24.07;nan
10712;BME280;5407;51.234;6.804;2022-09-14T10:28:51;100053.56;;;24.03;nan
10712;BME280;5407;51.234;6.804;2022-09-14T10:31:24;100047.72;;;24.01;nan
10712;BME280;5407;51.234;6.804;2022-09-14T10:33:57;100049.38;;;23.99;nan
10712;BME280;5407;51.234;6.804;2022-09-14T10:36:27;100044.66;;;23.99;nan
10712;BME280;5407;51.234;6.804;2022-09-14T10:38:58;100045.56;;;23.96;nan
10712;BME280;5407;51.234;6.804;2022-09-14T10:41:36;100045.56;;;23.96;nan
10712;BME280;5407;51.234;6.804;2022-09-14T10:44:21;100033.13;;;24.13;nan
10712;BME280;5407;51.234;6.804;2022-09-14T10:47:00;100039.03;;;24.24;nan
10712;BME280;5407;51.234;6.804;2022-09-14T10:49:42;100038.22;;;24.36;nan
10712;BME280;5407;51.234;6.804;2022-09-14T10:52:19;100027.19;;;24.15;nan
10712;BME280;5407;51.234;6.804;2022-09-14T10:55:06;100025.19;;;24.15;nan
10712;BME280;5407;51.234;6.804;2022-09-14T10:57:44;100039.88;;;24.34;nan
10712;BME280;5407;51.234;6.804;2022-09-14T11:00:18;100037.63;;;24.41;nan
10712;BME280;5407;51.234;6.804;2022-09-14T11:03:13;100035.94;;;24.44;nan
10712;BME280;5407;51.234;6.804;2022-09-14T11:05:53;100044.69;;;24.42;nan
10712;BME280;5407;51.234;6.804;2022-09-14T11:08:30;100046.97;;;24.44;nan
10712;BME280;5407;51.234;6.804;2022-09-14T11:11:18;100043.47;;;24.43;nan
10712;BME280;5407;51.234;6.804;2022-09-14T11:14:00;100035.19;;;24.43;nan
10712;BME280;5407;51.234;6.804;2022-09-14T11:16:45;100019.88;;;24.42;nan
10712;BME280;5407;51.234;6.804;2022-09-14T11:19:21;100017.09;;;24.42;nan
10712;BME280;5407;51.234;6.804;2022-09-14T11:21:59;100024.34;;;24.49;nan
10712;BME280;5407;51.234;6.804;2022-09-14T11:24:36;100016.78;;;24.40;nan
10712;BME280;5407;51.234;6.804;2022-09-14T11:27:10;100022.63;;;24.42;nan
10712;BME280;5407;51.234;6.804;2022-09-14T11:29:43;100014.84;;;24.28;nan
10712;BME280;5407;51.234;6.804;2022-09-14T11:32:16;100017.88;;;24.21;nan
10712;BME280;5407;51.234;6.804;2022-09-14T11:34:48;100018.50;;;24.25;nan
10712;BME280;5407;51.234;6.804;2022-09-14T11:37:25;100023.22;;;24.37;nan
10712;BME280;5407;51.234;6.804;2022-09-14T11:40:02;100020.19;;;24.44;nan
10712;BME280;5407;51.234;6.804;2022-09-14T11:42:34;100020.31;;;24.41;nan
10712;BME280;5407;51.234;6.804;2022-09-14T11:45:06;100018.41;;;24.29;nan
10712;BME280;5407;51.234;6.804;2022-09-14T11:47:47;100019.78;;;24.33;nan
10712;BME280;5407;51.234;6.804;2022-09-14T11:50:19;100014.94;;;24.37;nan
10712;BME280;5407;51.234;6.804;2022-09-14T11:52:58;100019.28;;;24.47;nan
10712;BME280;5407;51.234;6.804;2022-09-14T11:55:28;100011.28;;;24.40;nan
10712;BME280;5407;51.234;6.804;2022-09-14T11:57:55;100018.97;;;24.24;nan
10712;BME280;5407;51.234;6.804;2022-09-14T12:00:42;100020.69;;;24.30;nan
10712;BME280;5407;51.234;6.804;2022-09-14T12:05:33;100021.28;;;27.46;44.51
10712;BME280;5407;51.234;6.804;2022-09-14T12:08:03;100029.50;;;26.99;45.04
10712;BME280;5407;51.234;6.804;2022-09-14T12:10:30;100019.19;;;26.59;45.82
10712;BME280;5407;51.234;6.804;2022-09-14T12:13:16;100005.84;;;26.30;46.59
10712;BME280;5407;51.234;6.804;2022-09-14T12:15:45;100019.22;;;26.05;47.09
10712;BME280;5407;51.234;6.804;2022-09-14T12:18:21;100014.63;;;25.84;47.65
10712;BME280;5407;51.234;6.804;2022-09-14T12:20:59;99993.38;;;25.63;48.19
10712;BME280;5407;51.234;6.804;2022-09-14T12:23:31;100007.16;;;25.45;48.59
10712;BME280;5407;51.234;6.804;2022-09-14T12:26:03;99998.69;;;25.31;48.78
10712;BME280;5407;51.234;6.804;2022-09-14T12:28:39;100000.03;;;25.17;48.86
10712;BME280;5407;51.234;6.804;2022-09-14T12:31:28;99984.03;;;25.03;49.29
10712;BME280;5407;51.234;6.804;2022-09-14T12:34:18;99982.00;;;24.95;49.33
10712;BME280;5407;51.234;6.804;2022-09-14T12:40:31;99992.81;;;24.80;49.57
10712;BME280;5407;51.234;6.804;2022-09-14T12:46:37;100005.03;;;24.70;50.14
10712;BME280;5407;51.234;6.804;2022-09-14T12:49:33;100019.72;;;24.67;50.09
10712;BME280;5407;51.234;6.804;2022-09-14T12:52:13;100015.13;;;24.64;50.00
10712;BME280;5407;51.234;6.804;2022-09-14T12:54:55;100010.97;;;24.60;49.92
10712;BME280;5407;51.234;6.804;2022-09-14T12:57:30;99995.28;;;24.57;50.36
10712;BME280;5407;51.234;6.804;2022-09-14T13:00:08;99983.50;;;24.56;50.59
10712;BME280;5407;51.234;6.804;2022-09-14T13:05:53;99968.94;;;24.56;50.30
10712;BME280;5407;51.234;6.804;2022-09-14T13:08:23;99962.34;;;24.53;50.63
10712;BME280;5407;51.234;6.804;2022-09-14T13:10:51;99981.34;;;24.51;50.51
10712;BME280;5407;51.234;6.804;2022-09-14T13:13:20;99986.84;;;24.51;50.78
10712;BME280;5407;51.234;6.804;2022-09-14T13:15:52;99978.91;;;24.53;50.47
10712;BME280;5407;51.234;6.804;2022-09-14T13:18:29;99966.19;;;24.56;50.27
10712;BME280;5407;51.234;6.804;2022-09-14T13:20:57;99959.00;;;24.58;50.15
10712;BME280;5407;51.234;6.804;2022-09-14T13:23:29;99953.19;;;24.56;49.96
10712;BME280;5407;51.234;6.804;2022-09-14T13:25:58;99955.94;;;24.56;50.21
10712;BME280;5407;51.234;6.804;2022-09-14T13:28:29;99952.88;;;24.54;50.25
10712;BME280;5407;51.234;6.804;2022-09-14T13:30:58;99946.44;;;24.57;50.06
10712;BME280;5407;51.234;6.804;2022-09-14T13:33:26;99955.94;;;24.56;49.90
10712;BME280;5407;51.234;6.804;2022-09-14T13:35:55;99958.69;;;24.56;50.17
10712;BME280;5407;51.234;6.804;2022-09-14T13:38:24;99969.72;;;24.56;50.10
10712;BME280;5407;51.234;6.804;2022-09-14T13:40:55;99961.44;;;24.56;50.01
10712;BME280;5407;51.234;6.804;2022-09-14T13:43:22;99953.63;;;24.55;49.79
10712;BME280;5407;51.234;6.804;2022-09-14T13:45:50;99952.38;;;24.56;49.76
10712;BME280;5407;51.234;6.804;2022-09-14T13:48:18;99953.19;;;24.56;49.59
10712;BME280;5407;51.234;6.804;2022-09-14T13:50:47;99968.19;;;24.55;49.32
10712;BME280;5407;51.234;6.804;2022-09-14T13:53:37;99967.41;;;24.55;49.12
10712;BME280;5407;51.234;6.804;2022-09-14T13:56:21;99970.16;;;24.55;48.67